createdAt,value
2023-04-29T05:19:57.327Z,33.50
2023-04-29T05:38:28.909Z,35.42
2023-04-29T05:49:52.294Z,38.88
2023-04-29T06:00:16.760Z,35.78
2023-04-29T06:18:14.446Z,29.50
2023-04-29T06:21:17.192Z,32.08
2023-04-29T06:24:20.043Z,27.48
2023-04-29T06:27:22.835Z,27.08
2023-04-29T06:30:27.679Z,25.33
2023-04-29T06:33:33.640Z,25.38
2023-04-29T06:36:36.332Z,26.65
2023-04-29T06:39:41.214Z,23.38
2023-04-29T06:42:45.727Z,24.55
2023-04-29T06:45:50.405Z,24.40
2023-04-29T06:48:54.511Z,27.50
2023-04-29T06:51:57.297Z,27.50
2023-04-29T06:55:00.088Z,23.45
2023-04-29T06:58:04.995Z,26.55
2023-04-29T07:01:08.650Z,23.88
2023-04-29T07:04:12.943Z,24.00
2023-04-29T07:07:15.414Z,23.73
2023-04-29T07:10:18.175Z,25.33
2023-04-29T07:13:20.636Z,26.15
2023-04-29T07:16:26.480Z,28.48
2023-04-29T07:19:31.750Z,28.85
2023-04-29T07:22:34.204Z,34.05
2023-04-29T07:25:36.843Z,35.65
2023-04-29T07:28:39.630Z,37.80
2023-04-29T07:31:42.273Z,37.08
2023-04-29T07:34:46.104Z,37.20
2023-04-29T07:37:49.165Z,42.90
2023-04-29T07:40:51.661Z,45.30
2023-04-29T07:43:54.133Z,42.15
2023-04-29T07:46:56.696Z,45.95
2023-04-29T07:50:00.945Z,42.45
2023-04-29T07:53:04.782Z,40.20
2023-04-29T07:56:07.892Z,45.35
2023-04-29T07:59:10.378Z,41.33
2023-04-29T08:02:13.762Z,42.78
2023-04-29T08:05:17.836Z,40.72
2023-04-29T08:08:20.605Z,45.75
2023-04-29T08:11:26.185Z,40.13
2023-04-29T08:14:28.689Z,43.58
2023-04-29T08:17:31.540Z,43.28
2023-04-29T08:20:35.412Z,44.03
2023-04-29T08:23:38.043Z,39.47
2023-04-29T08:26:40.917Z,37.95
2023-04-29T08:29:43.459Z,48.22
2023-04-29T08:32:46.125Z,43.20
2023-04-29T08:35:49.932Z,44.13
2023-04-29T08:38:53.517Z,50.42
2023-04-29T08:41:57.346Z,47.08
2023-04-29T08:45:02.434Z,46.00
2023-04-29T08:48:06.183Z,50.45
2023-04-29T08:51:12.916Z,48.53
2023-04-29T08:54:15.421Z,55.42
2023-04-29T08:57:18.584Z,44.47
2023-04-29T09:00:21.676Z,46.92
2023-04-29T09:03:28.466Z,52.85
2023-04-29T09:06:33.353Z,48.47
2023-04-29T09:09:36.855Z,45.20
2023-04-29T09:12:39.398Z,46.05
2023-04-29T09:15:42.683Z,43.72
2023-04-29T09:18:47.393Z,47.47
2023-04-29T09:21:57.109Z,41.33
2023-04-29T09:25:13.216Z,44.40
2023-04-29T09:28:17.672Z,42.72
2023-04-29T09:31:28.685Z,45.53
2023-04-29T09:34:37.744Z,38.60
2023-04-29T09:37:41.853Z,38.10
2023-04-29T09:40:57.574Z,33.00
2023-04-29T09:44:05.864Z,35.50
2023-04-29T09:47:10.562Z,30.80
2023-04-29T09:50:16.296Z,33.13
2023-04-29T09:53:31.445Z,33.97
2023-04-29T09:56:50.086Z,34.72
2023-04-29T09:59:52.557Z,31.85
2023-04-29T10:02:59.561Z,29.30
2023-04-29T10:06:03.799Z,35.83
2023-04-29T10:09:09.558Z,29.38
2023-04-29T10:12:15.890Z,32.00
2023-04-29T10:15:24.102Z,28.83
2023-04-29T10:18:36.171Z,27.50
2023-04-29T10:21:39.169Z,31.73
2023-04-29T10:24:43.965Z,31.88
2023-04-29T10:27:48.892Z,33.20
2023-04-29T10:30:52.684Z,26.27
2023-04-29T10:33:57.428Z,25.95
2023-04-29T10:37:00.574Z,26.30
2023-04-29T10:40:13.244Z,22.95
2023-04-29T10:43:16.439Z,22.83
2023-04-29T10:46:20.182Z,23.42
2023-04-29T10:49:25.358Z,31.13
2023-04-29T10:52:28.779Z,27.52
2023-04-29T10:55:36.778Z,22.08
2023-04-29T10:58:42.485Z,21.02
2023-04-29T11:01:47.636Z,24.65
2023-04-29T11:05:08.331Z,19.27
2023-04-29T11:08:12.491Z,23.55
2023-04-29T11:11:16.613Z,22.77
2023-04-29T11:14:24.561Z,19.60
2023-04-29T11:17:28.330Z,17.95
2023-04-29T11:20:31.001Z,22.48
2023-04-29T11:23:35.644Z,21.55
2023-04-29T11:26:39.746Z,19.10
2023-04-29T11:29:42.609Z,23.35
2023-04-29T11:32:45.281Z,18.33
2023-04-29T11:35:48.387Z,20.25
2023-04-29T11:38:50.980Z,20.27
2023-04-29T11:42:08.059Z,23.38
2023-04-29T11:45:12.372Z,20.48
2023-04-29T11:48:19.346Z,19.85
2023-04-29T11:51:22.545Z,18.08
2023-04-29T11:54:26.716Z,20.60
2023-04-29T11:57:31.103Z,18.23
2023-04-29T12:00:33.651Z,17.80
2023-04-29T12:03:36.697Z,22.27
2023-04-29T12:06:39.379Z,16.92
2023-04-29T12:09:45.637Z,18.65
2023-04-29T12:12:49.532Z,18.02
2023-04-29T12:15:53.621Z,21.23
2023-04-29T12:18:57.650Z,18.75
2023-04-29T12:22:00.876Z,19.17
2023-04-29T12:25:05.009Z,20.42
2023-04-29T12:28:13.206Z,18.52
2023-04-29T12:31:16.892Z,21.42
2023-04-29T12:34:26.401Z,18.95
2023-04-29T12:37:29.167Z,19.80
2023-04-29T12:40:33.043Z,19.95
2023-04-29T12:43:38.001Z,20.13
2023-04-29T12:46:41.775Z,18.60
2023-04-29T12:49:45.500Z,15.52
2023-04-29T12:52:49.286Z,18.77
2023-04-29T12:55:52.262Z,19.00
2023-04-29T12:58:56.198Z,16.42
2023-04-29T13:01:58.706Z,17.02
2023-04-29T13:05:01.659Z,19.48
2023-04-29T13:08:06.719Z,17.30
2023-04-29T13:11:09.291Z,19.42
2023-04-29T13:14:13.075Z,17.08
2023-04-29T13:17:15.830Z,12.93
2023-04-29T13:20:18.796Z,15.07
2023-04-29T13:23:21.521Z,12.52
2023-04-29T13:26:24.960Z,13.55
2023-04-29T13:29:29.028Z,13.05
2023-04-29T13:32:43.183Z,15.27
2023-04-29T13:35:49.501Z,15.10
2023-04-29T13:38:55.594Z,13.70
2023-04-29T13:41:59.711Z,13.32
2023-04-29T13:45:03.951Z,12.55
2023-04-29T13:48:16.911Z,13.25
2023-04-29T13:58:31.130Z,12.05
2023-04-29T14:01:17.592Z,14.20
2023-04-29T14:04:25.607Z,13.90
2023-04-29T14:07:28.116Z,12.95
2023-04-29T14:10:31.185Z,12.80
2023-04-29T14:13:33.692Z,14.45
2023-04-29T14:16:37.491Z,14.00
2023-04-29T14:19:40.088Z,13.15
2023-04-29T14:22:42.562Z,14.45
2023-04-29T14:25:45.037Z,12.07
2023-04-29T14:28:47.660Z,14.45
2023-04-29T14:31:51.600Z,13.20
2023-04-29T14:34:54.466Z,13.93
2023-04-29T14:37:57.177Z,17.23
2023-04-29T14:40:59.642Z,12.23
2023-04-29T14:44:02.100Z,11.70
2023-04-29T14:47:05.964Z,10.07
2023-04-29T14:50:10.381Z,11.93
2023-04-29T14:53:12.832Z,14.32
2023-04-29T14:56:17.346Z,11.18
2023-04-29T14:59:19.960Z,10.95
2023-04-29T15:02:23.772Z,10.88
2023-04-29T15:05:26.298Z,14.45
2023-04-29T15:08:28.816Z,12.18
2023-04-29T15:11:31.354Z,10.02
2023-04-29T15:14:34.010Z,10.93
2023-04-29T15:17:37.843Z,9.65
2023-04-29T15:20:40.327Z,10.38
2023-04-29T15:23:42.749Z,8.93
2023-04-29T15:26:45.563Z,12.15
2023-04-29T15:29:48.035Z,15.25
2023-04-29T15:32:51.885Z,12.20
2023-04-29T15:35:56.672Z,8.95
2023-04-29T15:38:59.453Z,10.82
2023-04-29T15:42:01.942Z,10.50
2023-04-29T15:45:04.918Z,10.60
2023-04-29T15:48:08.927Z,7.72
2023-04-29T15:51:14.822Z,10.40
2023-04-29T15:54:17.306Z,9.55
2023-04-29T15:57:20.166Z,6.78
2023-04-29T16:00:22.728Z,5.93
2023-04-29T16:03:26.742Z,8.25
2023-04-29T16:06:29.273Z,7.25
2023-04-29T16:09:31.865Z,7.30
2023-04-29T16:12:34.364Z,9.05
2023-04-29T16:15:36.903Z,6.95
2023-04-29T16:18:40.676Z,6.57
2023-04-29T16:21:45.464Z,6.35
2023-04-29T16:24:49.771Z,8.15
2023-04-29T16:27:52.533Z,7.43
2023-04-29T16:30:55.016Z,9.10
2023-04-29T16:33:58.921Z,5.43
2023-04-29T16:37:01.411Z,7.68
2023-04-29T16:40:04.379Z,5.75
2023-04-29T16:43:06.845Z,6.45
2023-04-29T16:46:09.919Z,5.22
2023-04-29T16:49:13.728Z,6.60
2023-04-29T16:52:16.266Z,5.40
2023-04-29T16:55:18.929Z,4.28
2023-04-29T16:58:21.838Z,3.60
2023-04-29T17:01:24.421Z,4.72
2023-04-29T17:04:28.381Z,4.22
2023-04-29T17:07:30.964Z,8.27
2023-04-29T17:10:33.525Z,8.07
2023-04-29T17:13:35.994Z,4.95
2023-04-29T17:16:38.538Z,9.48
2023-04-29T17:19:42.420Z,4.93
2023-04-29T17:22:44.877Z,4.65
2023-04-29T17:25:47.460Z,6.30
2023-04-29T17:28:49.901Z,4.38
2023-04-29T17:31:59.577Z,6.70
2023-04-29T17:35:03.721Z,8.52
2023-04-29T17:38:06.206Z,5.38
2023-04-29T17:41:08.704Z,5.22
2023-04-29T17:44:11.237Z,3.97
2023-04-29T17:47:14.966Z,4.65
2023-04-29T17:50:18.843Z,6.50
2023-04-29T17:53:21.288Z,6.55
2023-04-29T17:56:23.808Z,5.57
2023-04-29T17:59:26.324Z,4.97
2023-04-29T18:02:28.868Z,4.50
2023-04-29T18:05:32.701Z,4.50
2023-04-29T18:08:35.193Z,5.47
2023-04-29T18:11:37.669Z,4.88
2023-04-29T18:14:40.105Z,7.43
2023-04-29T18:17:42.884Z,5.72
2023-04-29T18:20:46.989Z,6.93
2023-04-29T18:23:49.542Z,6.95
2023-04-29T18:26:52.023Z,6.07
2023-04-29T18:29:54.830Z,6.05
2023-04-29T18:32:57.516Z,6.32
2023-04-29T18:36:01.443Z,7.50
2023-04-29T18:39:04.287Z,6.55
2023-04-29T18:42:06.845Z,8.57
2023-04-29T18:45:10.177Z,6.10
2023-04-29T18:48:13.058Z,5.15
2023-04-29T18:51:16.965Z,6.75
2023-04-29T18:54:19.928Z,5.25
2023-04-29T18:57:22.783Z,4.05
2023-04-29T19:00:25.448Z,4.43
2023-04-29T19:03:27.942Z,6.00
2023-04-29T19:06:32.500Z,6.35
2023-04-29T19:09:35.067Z,6.45
2023-04-29T19:12:37.544Z,4.88
2023-04-29T19:15:40.179Z,5.22
2023-04-29T19:18:42.638Z,5.13
2023-04-29T19:21:46.524Z,6.85
2023-04-29T19:24:49.012Z,7.03
2023-04-29T19:27:51.713Z,4.40
2023-04-29T19:30:54.284Z,6.13
2023-04-29T19:33:56.885Z,4.50
2023-04-29T19:37:01.082Z,4.20
2023-04-29T19:40:04.038Z,5.30
2023-04-29T19:43:06.495Z,4.55
2023-04-29T19:46:09.014Z,7.05
